sensor_id;sensor_type;location;lat;lon;timestamp;P1;durP1;ratioP1;P2;durP2;ratioP2
62696;SDS011;48761;42.680;23.312;2022-11-02T00:02:14;27.63;;;8.98;;
62696;SDS011;48761;42.680;23.312;2022-11-02T00:04:39;21.30;;;9.35;;
62696;SDS011;48761;42.680;23.312;2022-11-02T00:07:05;19.58;;;8.50;;
62696;SDS011;48761;42.680;23.312;2022-11-02T00:09:31;19.00;;;8.50;;
62696;SDS011;48761;42.680;23.312;2022-11-02T00:11:57;16.83;;;8.35;;
62696;SDS011;48761;42.680;23.312;2022-11-02T00:14:23;21.63;;;8.93;;
62696;SDS011;48761;42.680;23.312;2022-11-02T00:16:49;22.85;;;9.00;;
62696;SDS011;48761;42.680;23.312;2022-11-02T00:19:16;16.50;;;8.23;;
62696;SDS011;48761;42.680;23.312;2022-11-02T00:21:42;20.95;;;8.55;;
62696;SDS011;48761;42.680;23.312;2022-11-02T00:24:09;20.38;;;8.43;;
62696;SDS011;48761;42.680;23.312;2022-11-02T00:26:36;17.27;;;8.50;;
62696;SDS011;48761;42.680;23.312;2022-11-02T00:29:03;18.30;;;8.45;;
62696;SDS011;48761;42.680;23.312;2022-11-02T00:31:30;22.95;;;8.63;;
62696;SDS011;48761;42.680;23.312;2022-11-02T00:33:56;20.55;;;8.95;;
62696;SDS011;48761;42.680;23.312;2022-11-02T00:36:22;20.98;;;8.35;;
62696;SDS011;48761;42.680;23.312;2022-11-02T00:38:48;18.40;;;8.07;;
62696;SDS011;48761;42.680;23.312;2022-11-02T00:41:14;21.88;;;8.57;;
62696;SDS011;48761;42.680;23.312;2022-11-02T00:43:41;19.33;;;9.02;;
62696;SDS011;48761;42.680;23.312;2022-11-02T00:46:07;16.77;;;9.05;;
62696;SDS011;48761;42.680;23.312;2022-11-02T00:48:33;14.93;;;8.70;;
62696;SDS011;48761;42.680;23.312;2022-11-02T00:50:59;30.63;;;9.77;;
62696;SDS011;48761;42.680;23.312;2022-11-02T00:53:25;23.45;;;9.55;;
62696;SDS011;48761;42.680;23.312;2022-11-02T00:55:51;20.80;;;9.05;;
62696;SDS011;48761;42.680;23.312;2022-11-02T00:58:17;15.95;;;8.45;;
62696;SDS011;48761;42.680;23.312;2022-11-02T01:00:43;16.70;;;8.50;;
62696;SDS011;48761;42.680;23.312;2022-11-02T01:03:08;19.25;;;8.77;;
62696;SDS011;48761;42.680;23.312;2022-11-02T01:05:35;26.20;;;9.00;;
62696;SDS011;48761;42.680;23.312;2022-11-02T01:08:01;22.75;;;8.43;;
62696;SDS011;48761;42.680;23.312;2022-11-02T01:10:27;23.60;;;8.25;;
62696;SDS011;48761;42.680;23.312;2022-11-02T01:12:53;22.75;;;7.50;;
62696;SDS011;48761;42.680;23.312;2022-11-02T01:15:19;19.77;;;7.80;;
62696;SDS011;48761;42.680;23.312;2022-11-02T01:17:45;16.88;;;7.95;;
62696;SDS011;48761;42.680;23.312;2022-11-02T01:20:11;21.83;;;8.32;;
62696;SDS011;48761;42.680;23.312;2022-11-02T01:22:36;17.23;;;8.32;;
62696;SDS011;48761;42.680;23.312;2022-11-02T01:25:03;19.13;;;8.02;;
62696;SDS011;48761;42.680;23.312;2022-11-02T01:27:29;13.75;;;7.63;;
62696;SDS011;48761;42.680;23.312;2022-11-02T01:29:55;19.92;;;8.45;;
62696;SDS011;48761;42.680;23.312;2022-11-02T01:32:21;16.90;;;7.78;;
62696;SDS011;48761;42.680;23.312;2022-11-02T01:34:47;15.25;;;7.97;;
62696;SDS011;48761;42.680;23.312;2022-11-02T01:37:12;15.88;;;7.82;;
62696;SDS011;48761;42.680;23.312;2022-11-02T01:39:38;20.92;;;8.10;;
62696;SDS011;48761;42.680;23.312;2022-11-02T01:42:15;17.42;;;7.63;;
62696;SDS011;48761;42.680;23.312;2022-11-02T01:44:42;19.27;;;7.22;;
62696;SDS011;48761;42.680;23.312;2022-11-02T01:47:23;16.00;;;7.57;;
62696;SDS011;48761;42.680;23.312;2022-11-02T01:49:53;13.95;;;7.38;;
62696;SDS011;48761;42.680;23.312;2022-11-02T01:52:26;20.00;;;8.50;;
62696;SDS011;48761;42.680;23.312;2022-11-02T01:55:12;16.23;;;7.90;;
62696;SDS011;48761;42.680;23.312;2022-11-02T01:57:45;18.90;;;7.93;;
62696;SDS011;48761;42.680;23.312;2022-11-02T02:00:15;18.85;;;7.55;;
62696;SDS011;48761;42.680;23.312;2022-11-02T02:03:04;22.67;;;8.25;;
62696;SDS011;48761;42.680;23.312;2022-11-02T02:05:33;18.85;;;8.23;;
62696;SDS011;48761;42.680;23.312;2022-11-02T02:08:03;18.02;;;8.00;;
62696;SDS011;48761;42.680;23.312;2022-11-02T02:10:48;19.67;;;9.43;;
62696;SDS011;48761;42.680;23.312;2022-11-02T02:13:13;19.92;;;8.45;;
62696;SDS011;48761;42.680;23.312;2022-11-02T02:18:36;20.10;;;8.55;;
62696;SDS011;48761;42.680;23.312;2022-11-02T02:21:24;22.45;;;8.85;;
62696;SDS011;48761;42.680;23.312;2022-11-02T02:29:20;17.42;;;8.10;;
62696;SDS011;48761;42.680;23.312;2022-11-02T02:31:56;20.15;;;9.02;;
62696;SDS011;48761;42.680;23.312;2022-11-02T02:34:33;17.38;;;7.82;;
62696;SDS011;48761;42.680;23.312;2022-11-02T02:37:06;22.40;;;8.30;;
62696;SDS011;48761;42.680;23.312;2022-11-02T02:39:43;15.80;;;7.30;;
62696;SDS011;48761;42.680;23.312;2022-11-02T02:42:21;14.43;;;8.00;;
62696;SDS011;48761;42.680;23.312;2022-11-02T02:45:32;20.42;;;7.72;;
62696;SDS011;48761;42.680;23.312;2022-11-02T02:47:55;18.13;;;8.35;;
62696;SDS011;48761;42.680;23.312;2022-11-02T02:50:26;21.95;;;9.77;;
62696;SDS011;48761;42.680;23.312;2022-11-02T02:52:57;17.85;;;9.63;;
62696;SDS011;48761;42.680;23.312;2022-11-02T02:55:28;17.92;;;8.60;;
62696;SDS011;48761;42.680;23.312;2022-11-02T02:57:59;23.75;;;8.73;;
62696;SDS011;48761;42.680;23.312;2022-11-02T03:00:26;21.90;;;8.68;;
62696;SDS011;48761;42.680;23.312;2022-11-02T03:02:54;18.23;;;8.73;;
62696;SDS011;48761;42.680;23.312;2022-11-02T03:05:23;21.92;;;8.63;;
62696;SDS011;48761;42.680;23.312;2022-11-02T03:07:50;21.02;;;9.80;;
62696;SDS011;48761;42.680;23.312;2022-11-02T03:10:21;17.33;;;8.57;;
62696;SDS011;48761;42.680;23.312;2022-11-02T03:13:08;17.30;;;8.27;;
62696;SDS011;48761;42.680;23.312;2022-11-02T03:15:49;18.35;;;8.55;;
62696;SDS011;48761;42.680;23.312;2022-11-02T03:21:41;21.15;;;8.50;;
62696;SDS011;48761;42.680;23.312;2022-11-02T03:24:12;15.48;;;7.68;;
62696;SDS011;48761;42.680;23.312;2022-11-02T03:29:23;22.48;;;7.80;;
62696;SDS011;48761;42.680;23.312;2022-11-02T03:34:26;20.67;;;9.02;;
62696;SDS011;48761;42.680;23.312;2022-11-02T03:39:38;20.50;;;9.38;;
62696;SDS011;48761;42.680;23.312;2022-11-02T03:42:08;21.05;;;8.65;;
62696;SDS011;48761;42.680;23.312;2022-11-02T03:44:38;20.42;;;9.02;;
62696;SDS011;48761;42.680;23.312;2022-11-02T03:47:05;19.38;;;8.93;;
62696;SDS011;48761;42.680;23.312;2022-11-02T03:49:36;23.80;;;10.02;;
62696;SDS011;48761;42.680;23.312;2022-11-02T03:52:07;16.13;;;9.55;;
62696;SDS011;48761;42.680;23.312;2022-11-02T03:54:52;18.55;;;9.00;;
62696;SDS011;48761;42.680;23.312;2022-11-02T03:57:24;27.55;;;12.82;;
62696;SDS011;48761;42.680;23.312;2022-11-02T04:00:10;26.30;;;13.00;;
62696;SDS011;48761;42.680;23.312;2022-11-02T04:02:38;29.05;;;12.30;;
62696;SDS011;48761;42.680;23.312;2022-11-02T04:05:07;24.02;;;9.85;;
62696;SDS011;48761;42.680;23.312;2022-11-02T04:07:33;27.70;;;12.75;;
62696;SDS011;48761;42.680;23.312;2022-11-02T04:10:02;22.42;;;10.32;;
62696;SDS011;48761;42.680;23.312;2022-11-02T04:12:29;23.27;;;12.35;;
62696;SDS011;48761;42.680;23.312;2022-11-02T04:14:54;31.08;;;14.40;;
62696;SDS011;48761;42.680;23.312;2022-11-02T04:17:20;38.55;;;18.60;;
62696;SDS011;48761;42.680;23.312;2022-11-02T04:19:46;27.63;;;13.65;;
62696;SDS011;48761;42.680;23.312;2022-11-02T04:22:12;27.20;;;10.88;;
62696;SDS011;48761;42.680;23.312;2022-11-02T04:24:38;34.70;;;11.32;;
62696;SDS011;48761;42.680;23.312;2022-11-02T04:27:05;27.52;;;11.55;;
62696;SDS011;48761;42.680;23.312;2022-11-02T04:29:31;23.42;;;11.73;;
62696;SDS011;48761;42.680;23.312;2022-11-02T04:31:56;20.30;;;11.20;;
62696;SDS011;48761;42.680;23.312;2022-11-02T04:34:22;28.27;;;11.07;;
62696;SDS011;48761;42.680;23.312;2022-11-02T04:36:48;28.25;;;11.52;;
62696;SDS011;48761;42.680;23.312;2022-11-02T04:39:14;20.58;;;11.70;;
62696;SDS011;48761;42.680;23.312;2022-11-02T04:41:40;20.75;;;11.98;;
62696;SDS011;48761;42.680;23.312;2022-11-02T04:44:06;21.50;;;12.18;;
62696;SDS011;48761;42.680;23.312;2022-11-02T04:46:34;25.23;;;12.32;;
62696;SDS011;48761;42.680;23.312;2022-11-02T04:49:01;22.85;;;13.27;;
62696;SDS011;48761;42.680;23.312;2022-11-02T04:51:28;28.77;;;12.90;;
62696;SDS011;48761;42.680;23.312;2022-11-02T04:53:55;33.22;;;13.73;;
62696;SDS011;48761;42.680;23.312;2022-11-02T04:56:22;25.67;;;13.95;;
62696;SDS011;48761;42.680;23.312;2022-11-02T04:58:49;28.58;;;14.60;;
62696;SDS011;48761;42.680;23.312;2022-11-02T05:01:16;30.48;;;16.13;;
62696;SDS011;48761;42.680;23.312;2022-11-02T05:03:45;31.10;;;14.15;;
62696;SDS011;48761;42.680;23.312;2022-11-02T05:06:11;28.88;;;16.27;;
62696;SDS011;48761;42.680;23.312;2022-11-02T05:08:37;29.88;;;15.82;;
62696;SDS011;48761;42.680;23.312;2022-11-02T05:11:03;35.70;;;14.70;;
62696;SDS011;48761;42.680;23.312;2022-11-02T05:13:30;34.95;;;14.07;;
62696;SDS011;48761;42.680;23.312;2022-11-02T05:15:56;29.30;;;14.90;;
62696;SDS011;48761;42.680;23.312;2022-11-02T05:18:24;34.55;;;14.88;;
62696;SDS011;48761;42.680;23.312;2022-11-02T05:20:51;32.35;;;14.43;;
62696;SDS011;48761;42.680;23.312;2022-11-02T05:23:18;31.08;;;14.20;;
62696;SDS011;48761;42.680;23.312;2022-11-02T05:28:37;34.78;;;15.98;;
62696;SDS011;48761;42.680;23.312;2022-11-02T05:31:03;42.22;;;21.40;;
62696;SDS011;48761;42.680;23.312;2022-11-02T05:33:30;34.78;;;16.48;;
62696;SDS011;48761;42.680;23.312;2022-11-02T05:35:57;41.58;;;15.52;;
62696;SDS011;48761;42.680;23.312;2022-11-02T05:38:24;36.80;;;17.13;;
62696;SDS011;48761;42.680;23.312;2022-11-02T05:40:51;43.63;;;17.08;;
62696;SDS011;48761;42.680;23.312;2022-11-02T05:43:18;36.50;;;17.08;;
62696;SDS011;48761;42.680;23.312;2022-11-02T05:45:44;28.48;;;16.25;;
62696;SDS011;48761;42.680;23.312;2022-11-02T05:48:19;40.25;;;18.02;;
62696;SDS011;48761;42.680;23.312;2022-11-02T05:50:44;36.35;;;16.65;;
62696;SDS011;48761;42.680;23.312;2022-11-02T05:53:10;33.28;;;16.60;;
62696;SDS011;48761;42.680;23.312;2022-11-02T05:55:36;41.53;;;18.33;;
62696;SDS011;48761;42.680;23.312;2022-11-02T05:58:02;39.58;;;18.02;;
62696;SDS011;48761;42.680;23.312;2022-11-02T06:00:28;33.58;;;16.95;;
62696;SDS011;48761;42.680;23.312;2022-11-02T06:02:55;33.80;;;16.63;;
62696;SDS011;48761;42.680;23.312;2022-11-02T06:05:22;35.70;;;17.40;;
62696;SDS011;48761;42.680;23.312;2022-11-02T06:07:48;34.15;;;17.50;;
62696;SDS011;48761;42.680;23.312;2022-11-02T06:10:14;33.03;;;17.23;;
62696;SDS011;48761;42.680;23.312;2022-11-02T06:12:40;43.50;;;17.38;;
62696;SDS011;48761;42.680;23.312;2022-11-02T06:15:06;41.67;;;17.15;;
62696;SDS011;48761;42.680;23.312;2022-11-02T06:17:36;30.65;;;17.23;;
62696;SDS011;48761;42.680;23.312;2022-11-02T06:20:03;41.97;;;18.65;;
62696;SDS011;48761;42.680;23.312;2022-11-02T06:22:29;42.80;;;19.27;;
62696;SDS011;48761;42.680;23.312;2022-11-02T06:24:55;37.40;;;20.63;;
62696;SDS011;48761;42.680;23.312;2022-11-02T06:27:21;41.22;;;21.40;;
62696;SDS011;48761;42.680;23.312;2022-11-02T06:29:46;42.42;;;20.50;;
62696;SDS011;48761;42.680;23.312;2022-11-02T06:32:12;40.10;;;20.95;;
62696;SDS011;48761;42.680;23.312;2022-11-02T06:34:38;46.45;;;22.33;;
62696;SDS011;48761;42.680;23.312;2022-11-02T06:37:04;45.70;;;22.02;;
62696;SDS011;48761;42.680;23.312;2022-11-02T06:39:30;47.38;;;22.00;;
62696;SDS011;48761;42.680;23.312;2022-11-02T06:41:56;47.50;;;22.60;;
62696;SDS011;48761;42.680;23.312;2022-11-02T06:44:22;44.17;;;23.35;;
62696;SDS011;48761;42.680;23.312;2022-11-02T06:46:48;46.03;;;22.75;;
62696;SDS011;48761;42.680;23.312;2022-11-02T06:49:14;50.88;;;24.13;;
62696;SDS011;48761;42.680;23.312;2022-11-02T06:51:40;43.47;;;22.95;;
62696;SDS011;48761;42.680;23.312;2022-11-02T06:54:06;43.38;;;22.42;;
62696;SDS011;48761;42.680;23.312;2022-11-02T06:56:31;51.72;;;22.23;;
62696;SDS011;48761;42.680;23.312;2022-11-02T06:58:57;39.17;;;24.02;;
62696;SDS011;48761;42.680;23.312;2022-11-02T07:01:23;62.08;;;32.50;;
62696;SDS011;48761;42.680;23.312;2022-11-02T07:03:49;46.78;;;25.10;;
62696;SDS011;48761;42.680;23.312;2022-11-02T07:06:15;49.13;;;22.65;;
62696;SDS011;48761;42.680;23.312;2022-11-02T07:08:41;46.38;;;22.27;;
62696;SDS011;48761;42.680;23.312;2022-11-02T07:11:07;53.00;;;22.45;;
62696;SDS011;48761;42.680;23.312;2022-11-02T07:13:36;50.67;;;22.95;;
62696;SDS011;48761;42.680;23.312;2022-11-02T07:16:02;45.88;;;23.08;;
62696;SDS011;48761;42.680;23.312;2022-11-02T07:18:28;47.63;;;22.02;;
62696;SDS011;48761;42.680;23.312;2022-11-02T07:20:54;45.00;;;22.80;;
62696;SDS011;48761;42.680;23.312;2022-11-02T07:23:23;46.75;;;24.15;;
62696;SDS011;48761;42.680;23.312;2022-11-02T07:25:49;46.17;;;22.75;;
62696;SDS011;48761;42.680;23.312;2022-11-02T07:28:15;51.25;;;24.17;;
62696;SDS011;48761;42.680;23.312;2022-11-02T07:30:41;49.92;;;23.05;;
62696;SDS011;48761;42.680;23.312;2022-11-02T07:33:07;51.65;;;23.88;;
62696;SDS011;48761;42.680;23.312;2022-11-02T07:35:33;44.72;;;25.27;;
62696;SDS011;48761;42.680;23.312;2022-11-02T07:38:00;45.17;;;24.60;;
62696;SDS011;48761;42.680;23.312;2022-11-02T07:40:27;54.85;;;27.05;;
62696;SDS011;48761;42.680;23.312;2022-11-02T07:42:55;40.83;;;23.55;;
62696;SDS011;48761;42.680;23.312;2022-11-02T07:45:22;41.60;;;23.58;;
62696;SDS011;48761;42.680;23.312;2022-11-02T07:47:48;44.65;;;23.75;;
62696;SDS011;48761;42.680;23.312;2022-11-02T07:50:16;46.42;;;25.10;;
62696;SDS011;48761;42.680;23.312;2022-11-02T07:52:44;46.55;;;22.85;;
62696;SDS011;48761;42.680;23.312;2022-11-02T07:55:12;43.00;;;22.55;;
62696;SDS011;48761;42.680;23.312;2022-11-02T07:57:40;47.33;;;24.15;;
62696;SDS011;48761;42.680;23.312;2022-11-02T08:00:06;41.15;;;22.45;;
62696;SDS011;48761;42.680;23.312;2022-11-02T08:02:32;40.40;;;22.48;;
62696;SDS011;48761;42.680;23.312;2022-11-02T08:04:58;42.25;;;21.77;;
62696;SDS011;48761;42.680;23.312;2022-11-02T08:07:24;47.15;;;22.80;;
62696;SDS011;48761;42.680;23.312;2022-11-02T08:09:50;58.63;;;26.23;;
62696;SDS011;48761;42.680;23.312;2022-11-02T08:12:16;50.13;;;24.88;;
62696;SDS011;48761;42.680;23.312;2022-11-02T08:14:41;50.70;;;23.10;;
62696;SDS011;48761;42.680;23.312;2022-11-02T08:17:07;47.80;;;23.00;;
62696;SDS011;48761;42.680;23.312;2022-11-02T08:19:33;38.22;;;20.50;;
62696;SDS011;48761;42.680;23.312;2022-11-02T08:21:59;40.03;;;20.38;;
62696;SDS011;48761;42.680;23.312;2022-11-02T08:24:25;37.38;;;19.67;;
62696;SDS011;48761;42.680;23.312;2022-11-02T08:26:51;42.80;;;21.23;;
62696;SDS011;48761;42.680;23.312;2022-11-02T08:29:17;39.75;;;20.95;;
62696;SDS011;48761;42.680;23.312;2022-11-02T08:31:43;36.95;;;20.20;;
62696;SDS011;48761;42.680;23.312;2022-11-02T08:34:09;42.60;;;21.10;;
62696;SDS011;48761;42.680;23.312;2022-11-02T08:36:35;48.30;;;23.00;;
62696;SDS011;48761;42.680;23.312;2022-11-02T08:39:00;47.70;;;22.20;;
62696;SDS011;48761;42.680;23.312;2022-11-02T08:41:26;44.47;;;21.85;;
62696;SDS011;48761;42.680;23.312;2022-11-02T08:43:52;42.92;;;22.55;;
62696;SDS011;48761;42.680;23.312;2022-11-02T08:46:18;42.55;;;21.95;;
62696;SDS011;48761;42.680;23.312;2022-11-02T08:48:44;48.03;;;21.85;;
62696;SDS011;48761;42.680;23.312;2022-11-02T08:51:10;45.00;;;22.90;;
62696;SDS011;48761;42.680;23.312;2022-11-02T08:53:36;42.92;;;22.65;;
62696;SDS011;48761;42.680;23.312;2022-11-02T08:56:02;38.80;;;21.70;;
62696;SDS011;48761;42.680;23.312;2022-11-02T08:58:28;43.35;;;21.75;;
62696;SDS011;48761;42.680;23.312;2022-11-02T09:00:54;44.90;;;22.35;;
62696;SDS011;48761;42.680;23.312;2022-11-02T09:03:20;50.70;;;23.63;;
62696;SDS011;48761;42.680;23.312;2022-11-02T09:05:46;47.78;;;22.13;;
62696;SDS011;48761;42.680;23.312;2022-11-02T09:08:13;42.13;;;21.45;;
62696;SDS011;48761;42.680;23.312;2022-11-02T09:10:44;42.30;;;23.00;;
62696;SDS011;48761;42.680;23.312;2022-11-02T09:13:14;41.85;;;23.02;;
62696;SDS011;48761;42.680;23.312;2022-11-02T09:15:41;47.03;;;22.98;;
62696;SDS011;48761;42.680;23.312;2022-11-02T09:18:07;38.90;;;23.20;;
62696;SDS011;48761;42.680;23.312;2022-11-02T09:20:34;46.28;;;22.25;;
62696;SDS011;48761;42.680;23.312;2022-11-02T09:23:00;39.78;;;21.48;;
62696;SDS011;48761;42.680;23.312;2022-11-02T09:25:26;43.92;;;22.30;;
62696;SDS011;48761;42.680;23.312;2022-11-02T09:27:52;49.92;;;22.70;;
62696;SDS011;48761;42.680;23.312;2022-11-02T09:30:20;44.17;;;21.33;;
62696;SDS011;48761;42.680;23.312;2022-11-02T09:33:20;37.40;;;22.27;;
62696;SDS011;48761;42.680;23.312;2022-11-02T09:35:39;46.38;;;22.48;;
62696;SDS011;48761;42.680;23.312;2022-11-02T09:38:07;43.80;;;20.95;;
62696;SDS011;48761;42.680;23.312;2022-11-02T09:43:19;42.58;;;20.35;;
62696;SDS011;48761;42.680;23.312;2022-11-02T09:45:59;32.88;;;19.00;;
62696;SDS011;48761;42.680;23.312;2022-11-02T09:48:34;38.53;;;20.65;;
62696;SDS011;48761;42.680;23.312;2022-11-02T09:51:19;36.63;;;21.08;;
62696;SDS011;48761;42.680;23.312;2022-11-02T09:56:43;45.78;;;21.65;;
62696;SDS011;48761;42.680;23.312;2022-11-02T09:59:12;47.72;;;22.33;;
62696;SDS011;48761;42.680;23.312;2022-11-02T10:04:31;49.20;;;21.50;;
62696;SDS011;48761;42.680;23.312;2022-11-02T10:07:07;45.45;;;21.23;;
62696;SDS011;48761;42.680;23.312;2022-11-02T10:09:48;46.38;;;21.77;;
62696;SDS011;48761;42.680;23.312;2022-11-02T10:17:41;49.60;;;22.23;;
62696;SDS011;48761;42.680;23.312;2022-11-02T10:22:51;33.58;;;19.88;;
62696;SDS011;48761;42.680;23.312;2022-11-02T10:25:23;35.20;;;19.15;;
62696;SDS011;48761;42.680;23.312;2022-11-02T10:27:49;42.72;;;20.10;;
62696;SDS011;48761;42.680;23.312;2022-11-02T10:30:21;84.18;;;20.85;;
62696;SDS011;48761;42.680;23.312;2022-11-02T10:32:49;43.15;;;21.17;;
62696;SDS011;48761;42.680;23.312;2022-11-02T10:41:15;38.50;;;18.42;;
62696;SDS011;48761;42.680;23.312;2022-11-02T10:51:28;34.72;;;15.95;;
62696;SDS011;48761;42.680;23.312;2022-11-02T10:53:54;28.65;;;14.15;;
62696;SDS011;48761;42.680;23.312;2022-11-02T10:58:49;28.90;;;14.10;;
62696;SDS011;48761;42.680;23.312;2022-11-02T11:01:24;30.00;;;12.88;;
62696;SDS011;48761;42.680;23.312;2022-11-02T11:03:55;33.00;;;14.27;;
62696;SDS011;48761;42.680;23.312;2022-11-02T11:06:30;23.77;;;11.98;;
62696;SDS011;48761;42.680;23.312;2022-11-02T11:14:35;19.77;;;7.20;;
62696;SDS011;48761;42.680;23.312;2022-11-02T11:17:16;19.67;;;7.28;;
62696;SDS011;48761;42.680;23.312;2022-11-02T11:19:53;19.02;;;6.20;;
62696;SDS011;48761;42.680;23.312;2022-11-02T11:22:28;12.90;;;5.65;;
62696;SDS011;48761;42.680;23.312;2022-11-02T11:27:44;17.98;;;5.90;;
62696;SDS011;48761;42.680;23.312;2022-11-02T11:32:55;16.17;;;5.75;;
62696;SDS011;48761;42.680;23.312;2022-11-02T11:35:23;23.48;;;4.63;;
62696;SDS011;48761;42.680;23.312;2022-11-02T11:37:55;21.92;;;5.35;;
62696;SDS011;48761;42.680;23.312;2022-11-02T11:40:23;15.98;;;4.90;;
62696;SDS011;48761;42.680;23.312;2022-11-02T11:42:53;18.13;;;4.55;;
62696;SDS011;48761;42.680;23.312;2022-11-02T11:45:25;21.00;;;5.13;;
62696;SDS011;48761;42.680;23.312;2022-11-02T11:47:55;16.95;;;4.93;;
62696;SDS011;48761;42.680;23.312;2022-11-02T11:50:30;19.55;;;5.47;;
62696;SDS011;48761;42.680;23.312;2022-11-02T11:55:44;16.85;;;4.22;;
62696;SDS011;48761;42.680;23.312;2022-11-02T12:01:05;11.93;;;4.07;;
62696;SDS011;48761;42.680;23.312;2022-11-02T12:03:31;11.98;;;3.72;;
62696;SDS011;48761;42.680;23.312;2022-11-02T12:12:00;13.63;;;4.15;;
62696;SDS011;48761;42.680;23.312;2022-11-02T12:27:06;14.40;;;4.63;;
62696;SDS011;48761;42.680;23.312;2022-11-02T12:29:58;18.85;;;5.10;;
62696;SDS011;48761;42.680;23.312;2022-11-02T12:45:46;16.67;;;4.28;;
62696;SDS011;48761;42.680;23.312;2022-11-02T12:51:25;15.95;;;5.15;;
62696;SDS011;48761;42.680;23.312;2022-11-02T12:54:20;13.05;;;4.45;;
62696;SDS011;48761;42.680;23.312;2022-11-02T12:56:50;16.20;;;4.20;;
62696;SDS011;48761;42.680;23.312;2022-11-02T12:59:21;13.82;;;4.47;;
62696;SDS011;48761;42.680;23.312;2022-11-02T13:01:48;13.05;;;5.03;;
62696;SDS011;48761;42.680;23.312;2022-11-02T13:04:35;13.90;;;4.38;;
62696;SDS011;48761;42.680;23.312;2022-11-02T13:07:19;13.40;;;4.05;;
62696;SDS011;48761;42.680;23.312;2022-11-02T13:09:58;22.02;;;5.32;;
62696;SDS011;48761;42.680;23.312;2022-11-02T13:12:29;16.65;;;4.70;;
62696;SDS011;48761;42.680;23.312;2022-11-02T13:14:57;21.33;;;5.43;;
62696;SDS011;48761;42.680;23.312;2022-11-02T13:17:44;17.80;;;4.50;;
62696;SDS011;48761;42.680;23.312;2022-11-02T13:20:22;13.50;;;4.30;;
62696;SDS011;48761;42.680;23.312;2022-11-02T13:22:54;15.00;;;4.78;;
62696;SDS011;48761;42.680;23.312;2022-11-02T13:25:33;13.88;;;4.90;;
62696;SDS011;48761;42.680;23.312;2022-11-02T13:28:18;21.35;;;4.80;;
62696;SDS011;48761;42.680;23.312;2022-11-02T13:30:49;17.00;;;4.95;;
62696;SDS011;48761;42.680;23.312;2022-11-02T13:33:22;16.67;;;5.22;;
62696;SDS011;48761;42.680;23.312;2022-11-02T13:35:53;13.88;;;4.55;;
62696;SDS011;48761;42.680;23.312;2022-11-02T13:41:03;13.25;;;4.57;;
62696;SDS011;48761;42.680;23.312;2022-11-02T13:51:39;19.42;;;5.28;;
62696;SDS011;48761;42.680;23.312;2022-11-02T13:54:20;16.30;;;5.10;;
62696;SDS011;48761;42.680;23.312;2022-11-02T13:56:51;12.95;;;4.32;;
62696;SDS011;48761;42.680;23.312;2022-11-02T13:59:36;12.52;;;4.53;;
62696;SDS011;48761;42.680;23.312;2022-11-02T14:02:03;20.02;;;5.35;;
62696;SDS011;48761;42.680;23.312;2022-11-02T14:04:39;59.05;;;8.48;;
62696;SDS011;48761;42.680;23.312;2022-11-02T14:09:44;20.05;;;4.82;;
62696;SDS011;48761;42.680;23.312;2022-11-02T14:14:42;14.27;;;4.88;;
62696;SDS011;48761;42.680;23.312;2022-11-02T14:17:13;15.68;;;5.32;;
62696;SDS011;48761;42.680;23.312;2022-11-02T14:22:13;19.73;;;5.18;;
62696;SDS011;48761;42.680;23.312;2022-11-02T14:45:15;21.10;;;6.93;;
62696;SDS011;48761;42.680;23.312;2022-11-02T14:48:04;20.27;;;6.28;;
62696;SDS011;48761;42.680;23.312;2022-11-02T14:50:31;22.83;;;7.05;;
62696;SDS011;48761;42.680;23.312;2022-11-02T14:53:05;16.95;;;6.38;;
62696;SDS011;48761;42.680;23.312;2022-11-02T14:55:34;24.55;;;7.30;;
62696;SDS011;48761;42.680;23.312;2022-11-02T14:58:06;14.60;;;6.72;;
62696;SDS011;48761;42.680;23.312;2022-11-02T15:03:58;21.05;;;6.80;;
62696;SDS011;48761;42.680;23.312;2022-11-02T15:06:21;17.45;;;7.00;;
62696;SDS011;48761;42.680;23.312;2022-11-02T15:08:54;18.10;;;7.20;;
62696;SDS011;48761;42.680;23.312;2022-11-02T15:11:41;19.88;;;6.47;;
62696;SDS011;48761;42.680;23.312;2022-11-02T15:17:48;22.23;;;8.02;;
62696;SDS011;48761;42.680;23.312;2022-11-02T15:19:51;23.70;;;8.82;;
62696;SDS011;48761;42.680;23.312;2022-11-02T15:22:41;23.25;;;8.25;;
62696;SDS011;48761;42.680;23.312;2022-11-02T15:27:54;21.13;;;7.65;;
62696;SDS011;48761;42.680;23.312;2022-11-02T15:30:27;23.55;;;7.70;;
62696;SDS011;48761;42.680;23.312;2022-11-02T15:32:57;19.55;;;7.15;;
62696;SDS011;48761;42.680;23.312;2022-11-02T15:35:33;23.35;;;7.22;;
62696;SDS011;48761;42.680;23.312;2022-11-02T15:38:02;24.65;;;7.53;;
62696;SDS011;48761;42.680;23.312;2022-11-02T15:45:51;19.40;;;7.35;;
62696;SDS011;48761;42.680;23.312;2022-11-02T16:04:30;23.48;;;9.05;;
62696;SDS011;48761;42.680;23.312;2022-11-02T16:07:02;23.38;;;9.27;;
62696;SDS011;48761;42.680;23.312;2022-11-02T16:12:09;24.13;;;9.75;;
62696;SDS011;48761;42.680;23.312;2022-11-02T16:14:35;23.88;;;10.02;;
62696;SDS011;48761;42.680;23.312;2022-11-02T16:17:01;29.15;;;10.23;;
62696;SDS011;48761;42.680;23.312;2022-11-02T16:19:27;27.38;;;11.40;;
62696;SDS011;48761;42.680;23.312;2022-11-02T16:21:53;25.10;;;11.00;;
62696;SDS011;48761;42.680;23.312;2022-11-02T16:24:19;29.40;;;10.35;;
62696;SDS011;48761;42.680;23.312;2022-11-02T16:26:45;20.92;;;9.60;;
62696;SDS011;48761;42.680;23.312;2022-11-02T16:29:24;22.02;;;9.52;;
62696;SDS011;48761;42.680;23.312;2022-11-02T16:31:54;23.45;;;9.30;;
62696;SDS011;48761;42.680;23.312;2022-11-02T16:34:21;25.23;;;8.90;;
62696;SDS011;48761;42.680;23.312;2022-11-02T16:36:51;26.50;;;9.93;;
62696;SDS011;48761;42.680;23.312;2022-11-02T16:39:27;31.83;;;11.50;;
62696;SDS011;48761;42.680;23.312;2022-11-02T16:41:55;24.52;;;10.98;;
62696;SDS011;48761;42.680;23.312;2022-11-02T16:44:24;30.88;;;13.07;;
62696;SDS011;48761;42.680;23.312;2022-11-02T16:47:15;28.25;;;13.35;;
62696;SDS011;48761;42.680;23.312;2022-11-02T16:50:00;30.83;;;12.00;;
62696;SDS011;48761;42.680;23.312;2022-11-02T16:52:30;32.53;;;11.73;;
62696;SDS011;48761;42.680;23.312;2022-11-02T16:55:01;32.58;;;14.02;;
62696;SDS011;48761;42.680;23.312;2022-11-02T16:57:47;36.63;;;13.82;;
62696;SDS011;48761;42.680;23.312;2022-11-02T17:00:15;30.25;;;12.90;;
62696;SDS011;48761;42.680;23.312;2022-11-02T17:02:43;27.23;;;11.85;;
62696;SDS011;48761;42.680;23.312;2022-11-02T17:05:22;29.13;;;11.13;;
62696;SDS011;48761;42.680;23.312;2022-11-02T17:07:56;26.75;;;9.32;;
62696;SDS011;48761;42.680;23.312;2022-11-02T17:10:25;23.48;;;11.48;;
62696;SDS011;48761;42.680;23.312;2022-11-02T17:12:53;30.60;;;11.93;;
62696;SDS011;48761;42.680;23.312;2022-11-02T17:15:21;38.33;;;13.70;;
62696;SDS011;48761;42.680;23.312;2022-11-02T17:17:49;35.05;;;10.40;;
62696;SDS011;48761;42.680;23.312;2022-11-02T17:20:35;31.90;;;11.70;;
62696;SDS011;48761;42.680;23.312;2022-11-02T17:23:04;28.92;;;12.43;;
62696;SDS011;48761;42.680;23.312;2022-11-02T17:25:32;27.15;;;10.60;;
62696;SDS011;48761;42.680;23.312;2022-11-02T17:28:04;23.50;;;11.88;;